»·PEaware :: DLH456 EDDF-KLAX

DLH456 :: EDDF-KLAX

FLIGHT INFORMATION

Flight Status: Arrived
Operator:
Lufthansa
More flights by this operator :: More flights under this callsign
Pilot: Oliver B. (21155)
Aircraft: Boeing 747-8
(B748)
More flights by this aircraft type
Origin: EDDF Frankfurt/Main
Germany
Destination: KLAX Los Angeles Intl
United States
More flights between these airports :: More routes between these airports
Route: +OBOKA1G OBOKA Z28 DIBIR BERGI M90 LONAM L7 SUM/N0496F340 RIXUN/M085F340 6205N 6410N AKI 6725N 6832N KUNUK/N0490F360 6770N 6676N YZS J530 YYQ 5498N ISN/N0479F380 BOY J713 TCH PICHO WINEN/N0482F390 Q73 EEVUN/N0480F380 Q73 HAKMN ANJLL4
File this flight plan on PilotEdge
Remarks: RMK / SIMBRIEF
Altitude:
(Current/Filed)
32,000ft
Speed:
(Current/Filed)
496kts
Departed: 03-Nov-20 05:40 AM
Arrived: 03-Nov-20 02:49 PM
Distance/Time
Traveled:
5030nm/9:09
Distance/Time
To Go:
Arrived

Flight Plot

Page will automatically refresh every two minutes.

Flight plan parsing failed; only flown route is shown


Map Options




Map Legend


Flown Route
Filed Route
Departure Airport
Arrival Airport
Navaid (VOR, NDB)
Fix

Horizontal Profiles

Position Reports

Time Latitude Longitude Heading Altitude Ground
Speed
03-Nov-20 05:24 50.046158 8.585790 159 377ft 0kts
03-Nov-20 05:25 50.046158 8.585790 159 377ft 0kts
03-Nov-20 05:26 50.046158 8.585790 159 377ft 0kts
03-Nov-20 05:27 50.046158 8.585790 159 377ft 0kts
03-Nov-20 05:28 50.046158 8.585790 159 377ft 0kts
03-Nov-20 05:29 50.046158 8.585790 159 377ft 0kts
03-Nov-20 05:30 50.046158 8.585790 159 377ft 0kts
03-Nov-20 05:31 50.046158 8.585790 159 377ft 0kts
03-Nov-20 05:32 50.046158 8.585790 159 377ft 0kts
03-Nov-20 05:33 50.046158 8.585790 159 377ft 0kts
03-Nov-20 05:34 50.046158 8.585790 159 377ft 0kts
03-Nov-20 05:35 50.046158 8.585790 159 377ft 0kts
03-Nov-20 05:36 50.046157 8.585791 159 377ft 0kts
03-Nov-20 05:37 50.046157 8.585791 159 377ft 0kts
03-Nov-20 05:38 50.044609 8.584789 243 377ft 28kts
03-Nov-20 05:39 50.031681 8.530694 248 1627ft 177kts
03-Nov-20 05:40 50.028919 8.448842 269 3063ft 219kts
03-Nov-20 05:41 50.018497 8.343541 257 4347ft 266kts
03-Nov-20 05:42 50.025420 8.230745 290 7491ft 272kts
03-Nov-20 05:43 50.058833 8.122820 295 10254ft 282kts
03-Nov-20 05:44 50.114178 8.013291 302 11210ft 364kts
03-Nov-20 05:46 50.180238 7.884738 300 13717ft 390kts
03-Nov-20 05:47 50.251691 7.751030 313 16220ft 422kts
03-Nov-20 05:48 50.362013 7.664658 329 18498ft 460kts
03-Nov-20 05:49 50.480791 7.583111 327 20660ft 475kts
03-Nov-20 05:50 50.596932 7.492599 317 22592ft 478kts
03-Nov-20 05:51 50.723909 7.405919 347 23453ft 557kts
03-Nov-20 05:52 50.877631 7.518018 56 19685ft 678kts
03-Nov-20 05:53 50.866343 7.775811 150 15595ft 609kts
03-Nov-20 05:54 50.757131 7.692491 247 9483ft 273kts
03-Nov-20 05:55 50.807154 7.635756 9 1067ft 388kts
03-Nov-20 05:56 50.875308 7.698254 80 1110ft 148kts
03-Nov-20 05:57 50.883556 7.727308 16 875ft 18kts
03-Nov-20 05:58 50.887054 7.757167 101 1170ft 70kts
03-Nov-20 05:59 50.879896 7.787471 120 796ft 92kts
03-Nov-20 06:00 50.859923 7.813925 159 1120ft 112kts
03-Nov-20 06:01 50.843587 7.839939 133 893ft 51kts
03-Nov-20 06:01 50.829405 7.854767 153 800ft 82kts
03-Nov-20 06:03 50.831776 7.871075 311 1157ft 6kts
03-Nov-20 06:03 50.832711 7.869165 311 1173ft 13kts
03-Nov-20 06:05 50.845649 7.851351 49 817ft 74kts
03-Nov-20 06:06 50.829240 7.891116 144 1458ft 351kts
03-Nov-20 06:06 50.769751 7.931261 122 1327ft 171kts
03-Nov-20 06:08 50.786859 7.976576 354 1144ft 12kts
03-Nov-20 06:08 50.790979 7.964577 261 1178ft 101kts
03-Nov-20 06:09 50.788692 7.947120 253 1387ft 33kts
03-Nov-20 06:10 50.785236 7.935165 249 1240ft 27kts
03-Nov-20 06:11 50.788067 7.911617 75 1114ft 25kts
03-Nov-20 06:12 50.831412 7.842505 282 955ft 76kts
03-Nov-20 06:13 50.832870 7.820885 268 1036ft 35kts
03-Nov-20 06:14 50.832650 7.807299 275 1066ft 26kts
03-Nov-20 06:15 50.833162 7.797051 270 937ft 21kts
03-Nov-20 06:16 50.829946 7.789429 230 1057ft 19kts
03-Nov-20 06:17 50.826233 7.781660 227 995ft 43kts
03-Nov-20 06:18 50.819735 7.767874 236 934ft 36kts
03-Nov-20 06:19 50.807794 7.768700 140 985ft 39kts
03-Nov-20 06:20 50.787083 7.765111 173 574ft 116kts
03-Nov-20 06:21 50.764719 7.760757 215 684ft 3kts
03-Nov-20 06:22 50.763829 7.760325 138 807ft 18kts
03-Nov-20 06:23 50.760431 7.763581 175 633ft 0kts
03-Nov-20 06:24 50.760476 7.763568 175 631ft 0kts
03-Nov-20 06:25 50.760509 7.763558 177 630ft 0kts
03-Nov-20 06:26 50.760521 7.763551 177 629ft 0kts
03-Nov-20 06:27 50.760529 7.763547 177 629ft 0kts
03-Nov-20 06:28 50.760537 7.763548 177 629ft 0kts
03-Nov-20 06:29 50.760545 7.763548 178 629ft 0kts
03-Nov-20 06:30 50.760552 7.763547 179 629ft 0kts
03-Nov-20 06:31 50.760557 7.763546 181 628ft 0kts
03-Nov-20 06:32 50.760559 7.763544 182 628ft 0kts
03-Nov-20 06:33 50.760560 7.763544 182 628ft 0kts
03-Nov-20 06:34 50.760561 7.763543 182 628ft 0kts
03-Nov-20 06:35 50.760562 7.763543 182 628ft 0kts
03-Nov-20 06:36 50.760563 7.763543 181 628ft 0kts
03-Nov-20 06:37 50.760564 7.763543 181 628ft 0kts
03-Nov-20 06:38 50.760565 7.763543 181 628ft 0kts
03-Nov-20 06:39 50.760565 7.763544 181 628ft 0kts
03-Nov-20 06:40 50.760565 7.763544 181 628ft 0kts
03-Nov-20 06:41 50.760565 7.763544 181 628ft 0kts
03-Nov-20 06:42 50.760565 7.763544 181 628ft 0kts
03-Nov-20 06:43 50.760565 7.763544 181 628ft 0kts
03-Nov-20 06:44 50.760565 7.763544 181 628ft 0kts
03-Nov-20 06:45 50.760565 7.763544 181 628ft 0kts
03-Nov-20 06:46 50.760565 7.763544 181 628ft 0kts
03-Nov-20 06:47 50.760565 7.763544 181 628ft 0kts
03-Nov-20 06:48 50.760565 7.763544 181 628ft 0kts
03-Nov-20 06:49 50.760565 7.763544 181 628ft 0kts
03-Nov-20 06:50 50.760565 7.763544 181 628ft 0kts
03-Nov-20 06:51 50.760565 7.763544 181 628ft 0kts
03-Nov-20 06:52 50.760565 7.763544 181 628ft 0kts
03-Nov-20 06:53 50.760565 7.763544 181 628ft 0kts
03-Nov-20 06:54 50.760565 7.763544 181 628ft 0kts
03-Nov-20 06:55 50.760565 7.763544 181 628ft 0kts
03-Nov-20 06:56 50.760565 7.763544 181 628ft 0kts
03-Nov-20 06:57 50.760565 7.763544 181 628ft 0kts
03-Nov-20 06:58 50.760565 7.763544 181 628ft 0kts
03-Nov-20 06:59 50.760565 7.763544 181 628ft 0kts
03-Nov-20 07:00 50.760565 7.763544 181 628ft 0kts
03-Nov-20 07:01 50.760565 7.763544 181 628ft 0kts
03-Nov-20 07:02 50.760565 7.763544 181 628ft 0kts
03-Nov-20 07:03 50.760565 7.763544 181 628ft 0kts
03-Nov-20 07:04 50.760565 7.763544 181 628ft 0kts
03-Nov-20 07:05 50.760565 7.763544 181 628ft 0kts
03-Nov-20 07:06 50.760565 7.763544 181 628ft 0kts
03-Nov-20 07:07 50.760565 7.763544 181 628ft 0kts
03-Nov-20 07:08 50.760565 7.763544 181 628ft 0kts
03-Nov-20 07:09 50.760565 7.763544 181 628ft 0kts
03-Nov-20 07:10 50.760565 7.763544 181 628ft 0kts
03-Nov-20 07:11 50.760565 7.763544 181 628ft 0kts
03-Nov-20 07:12 50.760565 7.763544 181 628ft 0kts
03-Nov-20 07:13 50.760565 7.763544 181 628ft 0kts
03-Nov-20 07:14 50.760565 7.763544 181 628ft 0kts
03-Nov-20 07:15 50.760565 7.763544 181 628ft 0kts
03-Nov-20 07:16 50.760565 7.763544 181 628ft 0kts
03-Nov-20 07:17 50.760565 7.763544 181 628ft 0kts
03-Nov-20 07:18 50.760565 7.763544 181 628ft 0kts
03-Nov-20 07:19 50.760565 7.763544 181 628ft 0kts
03-Nov-20 07:20 50.760565 7.763544 181 628ft 0kts
03-Nov-20 07:21 50.760565 7.763544 181 628ft 0kts
03-Nov-20 07:22 50.760565 7.763544 181 628ft 0kts
03-Nov-20 07:23 50.760565 7.763544 181 628ft 0kts
03-Nov-20 07:24 50.760565 7.763544 181 628ft 0kts
03-Nov-20 07:25 50.760565 7.763544 181 628ft 0kts
03-Nov-20 07:26 50.760565 7.763544 181 628ft 0kts
03-Nov-20 07:27 50.760565 7.763544 181 628ft 0kts
03-Nov-20 07:28 50.760565 7.763544 181 628ft 0kts
03-Nov-20 07:29 50.760565 7.763544 181 628ft 0kts
03-Nov-20 07:30 50.760565 7.763544 181 628ft 0kts
03-Nov-20 07:31 50.760565 7.763544 181 628ft 0kts
03-Nov-20 07:32 50.760565 7.763544 181 628ft 0kts
03-Nov-20 07:33 50.760565 7.763544 181 628ft 0kts
03-Nov-20 07:34 50.760565 7.763544 181 628ft 0kts
03-Nov-20 07:35 50.760565 7.763544 181 628ft 0kts
03-Nov-20 07:36 50.760565 7.763544 181 628ft 0kts
03-Nov-20 07:37 50.760565 7.763544 181 628ft 0kts
03-Nov-20 07:38 50.760565 7.763544 181 628ft 0kts
03-Nov-20 07:39 50.760565 7.763544 181 628ft 0kts
03-Nov-20 07:55 50.046158 8.585790 159 376ft 0kts
03-Nov-20 07:56 50.046158 8.585790 159 376ft 0kts
03-Nov-20 07:57 50.046158 8.585790 159 376ft 0kts
03-Nov-20 07:58 50.046158 8.585790 159 376ft 0kts
03-Nov-20 07:59 50.046158 8.585790 159 376ft 0kts
03-Nov-20 08:00 50.046158 8.585790 159 376ft 0kts
03-Nov-20 08:01 50.046158 8.585790 159 376ft 0kts
03-Nov-20 08:02 50.045726 8.586040 160 377ft 16kts
03-Nov-20 08:03 50.036398 8.550219 250 616ft 182kts
03-Nov-20 08:04 50.027289 8.473718 270 2344ft 198kts
03-Nov-20 08:05 50.022868 8.376387 257 3075ft 255kts
03-Nov-20 08:06 50.016717 8.264201 284 5598ft 271kts
03-Nov-20 08:07 50.047885 8.157111 290 8450ft 273kts
03-Nov-20 08:07 50.083173 8.071183 303 10337ft 293kts
03-Nov-20 08:09 50.151170 7.941665 302 11436ft 370kts
03-Nov-20 08:09 50.206109 7.833881 301 13320ft 393kts
03-Nov-20 08:10 50.288157 7.714092 324 15892ft 430kts
03-Nov-20 08:12 50.421615 7.624262 327 18375ft 460kts
03-Nov-20 08:12 50.520005 7.555993 327 20319ft 470kts
03-Nov-20 08:13 50.634248 7.452778 316 22117ft 479kts
03-Nov-20 08:14 50.743745 7.330180 303 23917ft 478kts
03-Nov-20 08:15 50.822974 7.164565 293 25839ft 473kts
03-Nov-20 08:16 50.899306 6.991076 293 27252ft 487kts
03-Nov-20 08:17 50.977812 6.814937 293 28976ft 486kts
03-Nov-20 08:18 51.054897 6.638805 292 30447ft 484kts
03-Nov-20 08:19 51.131620 6.463689 292 31759ft 480kts
03-Nov-20 08:20 51.207018 6.288050 291 32860ft 478kts
03-Nov-20 08:21 51.286884 6.117768 305 33964ft 496kts
03-Nov-20 08:22 51.399766 5.980752 312 34643ft 512kts
03-Nov-20 08:23 51.514726 5.847472 311 35217ft 510kts
03-Nov-20 08:24 51.629688 5.713970 312 35202ft 509kts
03-Nov-20 08:25 51.744031 5.579833 311 35199ft 508kts
03-Nov-20 08:26 51.858008 5.444912 311 35194ft 508kts
03-Nov-20 08:27 51.972083 5.308966 311 35172ft 510kts
03-Nov-20 08:28 52.085122 5.173380 311 35154ft 509kts
03-Nov-20 08:29 52.199241 5.035605 311 35145ft 511kts
03-Nov-20 08:30 52.312911 4.897475 311 35141ft 511kts
03-Nov-20 08:31 52.426923 4.758018 311 35139ft 511kts
03-Nov-20 08:32 52.541091 4.618188 311 35125ft 511kts
03-Nov-20 08:33 52.654192 4.477576 311 35104ft 510kts
03-Nov-20 08:34 52.775704 4.352043 331 35099ft 540kts
03-Nov-20 08:35 52.924353 4.293187 338 35078ft 554kts
03-Nov-20 08:36 53.074451 4.236459 338 35061ft 552kts
03-Nov-20 08:37 53.224534 4.179894 339 35058ft 552kts
03-Nov-20 08:38 53.373981 4.123131 338 35038ft 552kts
03-Nov-20 08:39 53.523595 4.065694 339 35028ft 551kts
03-Nov-20 08:40 53.673255 4.008081 339 35008ft 552kts
03-Nov-20 08:41 53.823178 3.949559 338 34995ft 551kts
03-Nov-20 08:42 53.966091 3.865405 330 34978ft 541kts
03-Nov-20 08:43 54.107594 3.777132 331 34978ft 541kts
03-Nov-20 08:44 54.248865 3.688127 331 34965ft 541kts
03-Nov-20 08:45 54.389710 3.599455 331 34969ft 538kts
03-Nov-20 08:46 54.530022 3.510223 331 34965ft 537kts
03-Nov-20 08:47 54.669819 3.420196 332 34963ft 535kts
03-Nov-20 08:48 54.809514 3.330735 331 34959ft 534kts
03-Nov-20 08:49 54.948439 3.240455 330 34934ft 530kts
03-Nov-20 08:50 55.078866 3.126513 324 34933ft 521kts
03-Nov-20 08:51 55.206777 3.008219 324 34933ft 520kts
03-Nov-20 08:52 55.334842 2.890873 325 34950ft 520kts
03-Nov-20 08:53 55.462975 2.772761 324 34940ft 518kts
03-Nov-20 08:54 55.590069 2.653563 325 34937ft 516kts
03-Nov-20 08:55 55.717246 2.534430 325 34937ft 515kts
03-Nov-20 08:56 55.843081 2.414908 325 34935ft 514kts
03-Nov-20 08:57 55.971744 2.303088 329 34933ft 516kts
03-Nov-20 08:58 56.102573 2.196713 329 34922ft 515kts
03-Nov-20 08:59 56.232939 2.089542 329 34919ft 515kts
03-Nov-20 09:00 56.363256 1.982103 329 34914ft 515kts
03-Nov-20 09:01 56.492884 1.873837 329 34923ft 513kts
03-Nov-20 09:02 56.622585 1.764642 329 34925ft 511kts
03-Nov-20 09:03 56.751326 1.656049 329 34921ft 509kts
03-Nov-20 09:04 56.879107 1.546410 329 34916ft 507kts
03-Nov-20 09:05 57.006973 1.436000 329 34912ft 506kts
03-Nov-20 09:06 57.133642 1.325462 329 34907ft 504kts
03-Nov-20 09:07 57.260247 1.214031 329 34901ft 503kts
03-Nov-20 09:08 57.386913 1.103235 329 34875ft 502kts
03-Nov-20 09:09 57.512569 0.991673 329 34872ft 501kts
03-Nov-20 09:10 57.638198 0.879133 329 34869ft 500kts
03-Nov-20 09:11 57.763632 0.766514 329 34866ft 499kts
03-Nov-20 09:12 57.888115 0.652763 330 34864ft 497kts
03-Nov-20 09:13 58.012402 0.538555 330 34863ft 496kts
03-Nov-20 09:14 58.136088 0.423620 330 34861ft 494kts
03-Nov-20 09:15 58.259357 0.308072 330 34860ft 494kts
03-Nov-20 09:16 58.382973 0.193361 330 34858ft 494kts
03-Nov-20 09:17 58.506079 0.077110 330 34840ft 494kts
03-Nov-20 09:18 58.629233 -0.040292 330 34837ft 492kts
03-Nov-20 09:19 58.751170 -0.157476 331 34841ft 485kts
03-Nov-20 09:20 58.870579 -0.273110 331 34846ft 478kts
03-Nov-20 09:21 58.989497 -0.389169 331 34836ft 478kts
03-Nov-20 09:22 59.108193 -0.505924 331 34826ft 477kts
03-Nov-20 09:23 59.226384 -0.623094 331 34820ft 477kts
03-Nov-20 09:24 59.344573 -0.741183 331 34813ft 476kts
03-Nov-20 09:25 59.462407 -0.859846 331 34805ft 475kts
03-Nov-20 09:26 59.579714 -0.978912 331 34797ft 475kts
03-Nov-20 09:27 59.697359 -1.098515 330 34790ft 474kts
03-Nov-20 09:28 59.814297 -1.219689 330 34787ft 474kts
03-Nov-20 09:29 59.927091 -1.354242 322 34787ft 471kts
03-Nov-20 09:30 60.031470 -1.511778 321 34788ft 470kts
03-Nov-20 09:31 60.136008 -1.668705 321 34789ft 470kts
03-Nov-20 09:32 60.241385 -1.824802 322 34790ft 470kts
03-Nov-20 09:33 60.346212 -1.982637 321 34791ft 470kts
03-Nov-20 09:34 60.450315 -2.141064 321 34805ft 468kts
03-Nov-20 09:35 60.554272 -2.300619 321 34813ft 468kts
03-Nov-20 09:36 60.657844 -2.460899 321 34811ft 466kts
03-Nov-20 09:37 60.760810 -2.620978 322 34809ft 465kts
03-Nov-20 09:38 60.863587 -2.782284 321 34807ft 464kts
03-Nov-20 09:39 60.965516 -2.944841 321 34808ft 463kts
03-Nov-20 09:40 61.062768 -3.118505 316 34815ft 462kts
03-Nov-20 09:41 61.155946 -3.301366 316 34811ft 461kts
03-Nov-20 09:42 61.249287 -3.484633 316 34810ft 461kts
03-Nov-20 09:43 61.342861 -3.665339 316 34808ft 458kts
03-Nov-20 09:44 61.435506 -3.848174 316 34803ft 457kts
03-Nov-20 09:45 61.527555 -4.031786 316 34807ft 456kts
03-Nov-20 09:47 61.619072 -4.215953 316 34804ft 455kts
03-Nov-20 09:48 61.710209 -4.400948 316 34797ft 455kts
03-Nov-20 09:49 61.801609 -4.586539 316 34794ft 455kts
03-Nov-20 09:50 61.892139 -4.773948 315 34791ft 453kts
03-Nov-20 09:51 61.981667 -4.961447 315 34789ft 451kts
03-Nov-20 09:52 62.068352 -5.153269 313 34788ft 448kts
03-Nov-20 09:53 62.153227 -5.348005 313 34781ft 446kts
03-Nov-20 09:54 62.237453 -5.542537 314 34781ft 445kts
03-Nov-20 09:55 62.322706 -5.735153 313 34782ft 444kts
03-Nov-20 09:56 62.406703 -5.929559 313 34782ft 443kts
03-Nov-20 09:57 62.490326 -6.125466 313 34783ft 442kts
03-Nov-20 09:58 62.573690 -6.322630 313 34783ft 443kts
03-Nov-20 09:59 62.656438 -6.520105 313 34785ft 443kts
03-Nov-20 10:00 62.739210 -6.719426 313 34785ft 443kts
03-Nov-20 10:01 62.821430 -6.919212 312 34785ft 442kts
03-Nov-20 10:02 62.903544 -7.120556 312 34785ft 442kts
03-Nov-20 10:03 62.985110 -7.322383 312 34785ft 441kts
03-Nov-20 10:04 63.066474 -7.525558 312 34783ft 441kts
03-Nov-20 10:05 63.147420 -7.729554 312 34784ft 443kts
03-Nov-20 10:05 63.214402 -7.899782 312 34784ft 432kts
03-Nov-20 10:07 63.304994 -8.132114 312 34785ft 421kts
03-Nov-20 10:07 63.368204 -8.295686 313 34785ft 416kts
03-Nov-20 10:09 63.455721 -8.524115 313 34786ft 414kts
03-Nov-20 10:09 63.517918 -8.687910 313 34787ft 412kts
03-Nov-20 10:10 63.591735 -8.883881 313 34789ft 409kts
03-Nov-20 10:11 63.664651 -9.079169 313 34793ft 406kts
03-Nov-20 10:12 63.736653 -9.273702 313 34796ft 402kts
03-Nov-20 10:13 63.808183 -9.467439 313 34809ft 398kts
03-Nov-20 10:14 63.878854 -9.660688 312 34822ft 397kts
03-Nov-20 10:15 63.948354 -9.855044 312 34825ft 396kts
03-Nov-20 10:16 64.015315 -10.054470 306 34836ft 398kts
03-Nov-20 10:17 64.071604 -10.274317 305 34838ft 401kts
03-Nov-20 10:18 64.127209 -10.494441 305 34845ft 398kts
03-Nov-20 10:19 64.182558 -10.713559 306 34852ft 395kts
03-Nov-20 10:20 64.238565 -10.928018 306 34899ft 389kts
03-Nov-20 10:21 64.292687 -11.142057 306 34907ft 383kts
03-Nov-20 10:22 64.345159 -11.352742 306 34914ft 377kts
03-Nov-20 10:23 64.396640 -11.561669 306 34920ft 371kts
03-Nov-20 10:24 64.447099 -11.768464 306 34926ft 366kts
03-Nov-20 10:25 64.496835 -11.974254 306 34932ft 366kts
03-Nov-20 10:26 64.545988 -12.179545 306 34937ft 359kts
03-Nov-20 10:27 64.594319 -12.383322 306 34942ft 360kts
03-Nov-20 10:28 64.642509 -12.588418 306 34947ft 359kts
03-Nov-20 10:29 64.689960 -12.792284 305 34950ft 357kts
03-Nov-20 10:30 64.736947 -12.996076 305 34953ft 354kts
03-Nov-20 10:31 64.783341 -13.199185 305 34956ft 350kts
03-Nov-20 10:32 64.828797 -13.400077 305 34958ft 346kts
03-Nov-20 10:33 64.873426 -13.599157 305 34960ft 344kts
03-Nov-20 10:34 64.917698 -13.798485 305 34962ft 342kts
03-Nov-20 10:35 64.961487 -13.997486 305 34963ft 342kts
03-Nov-20 10:36 65.003848 -14.191758 304 34964ft 332kts
03-Nov-20 10:37 65.046111 -14.387448 304 34967ft 333kts
03-Nov-20 10:38 65.088034 -14.583311 304 34971ft 331kts
03-Nov-20 10:39 65.129458 -14.778595 303 34964ft 330kts
03-Nov-20 10:40 65.170407 -14.973432 303 34965ft 326kts
03-Nov-20 10:41 65.210898 -15.167989 303 34969ft 326kts
03-Nov-20 10:42 65.250611 -15.360531 302 34959ft 322kts
03-Nov-20 10:43 65.289991 -15.553267 302 34972ft 321kts
03-Nov-20 10:44 65.328723 -15.744470 302 34970ft 319kts
03-Nov-20 10:45 65.367100 -15.935884 302 34970ft 318kts
03-Nov-20 10:46 65.405037 -16.126250 301 34958ft 313kts
03-Nov-20 10:47 65.442310 -16.315502 302 34992ft 314kts
03-Nov-20 10:48 65.479583 -16.506935 301 34990ft 317kts
03-Nov-20 10:49 65.517077 -16.700369 300 34968ft 319kts
03-Nov-20 10:50 65.553912 -16.893137 300 35006ft 317kts
03-Nov-20 10:51 65.588355 -17.074654 299 35003ft 318kts
03-Nov-20 10:52 65.627194 -17.280851 299 34944ft 319kts
03-Nov-20 10:53 65.664378 -17.474681 298 34984ft 315kts
03-Nov-20 10:54 65.700054 -17.670769 297 34989ft 317kts
03-Nov-20 10:55 65.735194 -17.866052 297 34974ft 315kts
03-Nov-20 10:56 65.770335 -18.056198 299 34981ft 319kts
03-Nov-20 10:57 65.811204 -18.253455 299 35028ft 316kts
03-Nov-20 10:58 65.850590 -18.446925 299 34996ft 316kts
03-Nov-20 10:59 65.889302 -18.640424 298 34999ft 317kts
03-Nov-20 11:00 65.929165 -18.835553 299 34984ft 320kts
03-Nov-20 11:01 65.969482 -19.030584 298 35014ft 322kts
03-Nov-20 11:02 66.009118 -19.228647 297 34991ft 326kts
03-Nov-20 11:03 66.048710 -19.428943 296 34989ft 325kts
03-Nov-20 11:04 66.087774 -19.629698 296 34992ft 326kts
03-Nov-20 11:05 66.126818 -19.831816 295 34977ft 327kts
03-Nov-20 11:06 66.165710 -20.035576 295 34983ft 329kts
03-Nov-20 11:07 66.204408 -20.240113 295 35024ft 326kts
03-Nov-20 11:08 66.242565 -20.443938 295 34977ft 330kts
03-Nov-20 11:09 66.280509 -20.648722 294 34979ft 326kts
03-Nov-20 11:10 66.318256 -20.854682 294 34985ft 328kts
03-Nov-20 11:11 66.355695 -21.060948 294 34963ft 325kts
03-Nov-20 11:12 66.392960 -21.268134 293 34968ft 327kts
03-Nov-20 11:13 66.429880 -21.475721 293 34973ft 327kts
03-Nov-20 11:14 66.466671 -21.685031 293 34963ft 329kts
03-Nov-20 11:15 66.503120 -21.894432 292 34953ft 328kts
03-Nov-20 11:16 66.539580 -22.105765 292 34971ft 329kts
03-Nov-20 11:17 66.575652 -22.317327 291 34960ft 330kts
03-Nov-20 11:18 66.611465 -22.529776 291 34960ft 330kts
03-Nov-20 11:19 66.646925 -22.742640 290 34960ft 332kts
03-Nov-20 11:20 66.682307 -22.957101 290 34945ft 330kts
03-Nov-20 11:21 66.717380 -23.171941 289 34944ft 329kts
03-Nov-20 11:22 66.751736 -23.385307 289 34949ft 331kts
03-Nov-20 11:23 66.785981 -23.599942 289 34956ft 329kts
03-Nov-20 11:24 66.819469 -23.811314 288 34914ft 329kts
03-Nov-20 11:25 66.853454 -24.029722 288 34915ft 333kts
03-Nov-20 11:26 66.887088 -24.246941 288 34965ft 333kts
03-Nov-20 11:27 66.921437 -24.466350 287 34915ft 332kts
03-Nov-20 11:28 66.954065 -24.686989 286 34907ft 333kts
03-Nov-20 11:29 66.986824 -24.909992 286 34905ft 336kts
03-Nov-20 11:30 67.021865 -25.132244 288 34895ft 339kts
03-Nov-20 11:31 67.059161 -25.353993 287 34886ft 340kts
03-Nov-20 11:32 67.095808 -25.577565 287 34882ft 339kts
03-Nov-20 11:33 67.132015 -25.802412 287 34870ft 341kts
03-Nov-20 11:34 67.170608 -26.027337 287 34860ft 345kts
03-Nov-20 11:35 67.208111 -26.255232 286 34853ft 347kts
03-Nov-20 11:36 67.244658 -26.483171 285 34839ft 343kts
03-Nov-20 11:37 67.281184 -26.714180 285 34835ft 346kts
03-Nov-20 11:38 67.317143 -26.944986 285 34825ft 348kts
03-Nov-20 11:40 67.352795 -27.176411 284 34813ft 346kts
03-Nov-20 11:41 67.388263 -27.409698 284 34808ft 348kts
03-Nov-20 11:42 67.423586 -27.644925 283 34783ft 349kts
03-Nov-20 11:43 67.458456 -27.880027 283 34773ft 349kts
03-Nov-20 11:44 67.493041 -28.116471 282 34766ft 352kts
03-Nov-20 11:45 67.526704 -28.349250 282 34753ft 347kts
03-Nov-20 11:46 67.560579 -28.586773 282 34740ft 352kts
03-Nov-20 11:47 67.594518 -28.827651 281 34733ft 351kts
03-Nov-20 11:48 67.627657 -29.066073 280 34721ft 347kts
03-Nov-20 11:49 67.660066 -29.302489 280 34704ft 351kts
03-Nov-20 11:50 67.693269 -29.548028 279 34696ft 352kts
03-Nov-20 11:51 67.726052 -29.793901 278 34689ft 350kts
03-Nov-20 11:52 67.757642 -30.033988 278 34673ft 351kts
03-Nov-20 11:53 67.789770 -30.281834 278 34658ft 352kts
03-Nov-20 11:54 67.821359 -30.529023 277 34647ft 354kts
03-Nov-20 11:55 67.852510 -30.776376 276 34649ft 356kts
03-Nov-20 11:56 67.883520 -31.026309 276 34634ft 357kts
03-Nov-20 11:56 67.909724 -31.235389 276 34620ft 363kts
03-Nov-20 11:58 67.945811 -31.531891 273 34616ft 359kts
03-Nov-20 11:58 67.970530 -31.744924 272 34603ft 363kts
03-Nov-20 12:00 68.003303 -32.033628 270 34590ft 357kts
03-Nov-20 12:00 68.021821 -32.257888 268 34575ft 353kts
03-Nov-20 12:02 68.045603 -32.561008 268 34559ft 361kts
03-Nov-20 12:02 68.062168 -32.780730 268 34578ft 365kts
03-Nov-20 12:03 68.083185 -33.037079 269 34542ft 375kts
03-Nov-20 12:04 68.107001 -33.321484 268 34571ft 375kts
03-Nov-20 12:05 68.127959 -33.593691 267 34527ft 366kts
03-Nov-20 12:06 68.148178 -33.863446 266 34506ft 371kts
03-Nov-20 12:07 68.167560 -34.133248 266 34543ft 369kts
03-Nov-20 12:08 68.186981 -34.406568 266 34476ft 377kts
03-Nov-20 12:09 68.206472 -34.688505 267 34516ft 385kts
03-Nov-20 12:10 68.348460 -37.028702 266 34517ft 415kts
03-Nov-20 12:11 68.516259 -40.795551 256 34228ft 418kts
03-Nov-20 12:12 68.516293 -41.124421 262 34130ft 432kts
03-Nov-20 12:13 68.524193 -41.456305 263 34104ft 444kts
03-Nov-20 12:14 68.532570 -41.795767 263 34078ft 454kts
03-Nov-20 12:15 68.581614 -46.504799 261 33864ft 486kts
03-Nov-20 12:16 68.508993 -50.881359 248 33603ft 487kts
03-Nov-20 12:17 68.496137 -51.250768 261 33528ft 498kts
03-Nov-20 12:18 68.359582 -55.548956 255 34499ft 477kts
03-Nov-20 12:19 68.263085 -57.422566 255 36199ft 485kts
03-Nov-20 12:20 68.239456 -57.782430 256 35799ft 487kts
03-Nov-20 12:21 67.934669 -61.933157 254 36050ft 488kts
03-Nov-20 12:22 67.830099 -63.076187 253 35988ft 471kts
03-Nov-20 12:23 67.403793 -67.002725 249 35923ft 474kts
03-Nov-20 12:24 66.944399 -70.372417 246 36079ft 469kts
03-Nov-20 12:25 66.898680 -70.685243 245 36123ft 469kts
03-Nov-20 12:26 66.693698 -72.094030 245 36064ft 469kts
03-Nov-20 12:27 66.388875 -73.864452 247 36237ft 472kts
03-Nov-20 12:28 66.153151 -75.195392 244 36214ft 472kts
03-Nov-20 12:29 65.157259 -79.614809 242 36258ft 460kts
03-Nov-20 12:30 64.060145 -83.597927 239 36696ft 473kts
03-Nov-20 12:31 63.943585 -83.850110 228 36712ft 479kts
03-Nov-20 12:32 63.851436 -84.063547 235 36714ft 470kts
03-Nov-20 12:33 63.764158 -84.283502 235 36717ft 469kts
03-Nov-20 12:34 63.676526 -84.500833 235 36721ft 469kts
03-Nov-20 12:35 62.980366 -86.153158 236 36697ft 461kts
03-Nov-20 12:36 61.606927 -89.082579 234 36994ft 455kts
03-Nov-20 12:37 60.459378 -91.255048 233 36988ft 442kts
03-Nov-20 12:38 58.974000 -93.768689 231 36882ft 434kts
03-Nov-20 12:39 58.082869 -94.694208 228 33639ft 308kts
03-Nov-20 12:40 58.015330 -94.781977 231 34443ft 291kts
03-Nov-20 12:41 57.941140 -94.861688 224 34232ft 327kts
03-Nov-20 12:42 57.850251 -94.945760 220 33667ft 383kts
03-Nov-20 12:43 57.750026 -95.035053 219 33877ft 414kts
03-Nov-20 12:44 57.642056 -95.129936 218 34080ft 444kts
03-Nov-20 12:45 57.526754 -95.230410 217 34567ft 463kts
03-Nov-20 12:46 57.410271 -95.331165 217 35885ft 457kts
03-Nov-20 12:47 57.294712 -95.430431 216 36772ft 458kts
03-Nov-20 12:48 57.178750 -95.529320 216 36814ft 458kts
03-Nov-20 12:49 55.828076 -96.633294 214 36773ft 463kts
03-Nov-20 12:50 54.843817 -97.385892 213 36749ft 467kts
03-Nov-20 12:51 54.246841 -97.823202 212 36682ft 463kts
03-Nov-20 12:52 53.854017 -98.152039 229 36697ft 441kts
03-Nov-20 12:53 53.755535 -98.279528 224 36696ft 448kts
03-Nov-20 12:54 53.173695 -98.940336 221 37848ft 444kts
03-Nov-20 12:55 53.070561 -99.053962 221 38626ft 444kts
03-Nov-20 12:56 52.968049 -99.166702 221 38672ft 442kts
03-Nov-20 12:57 52.865198 -99.279249 221 38670ft 442kts
03-Nov-20 12:58 52.762251 -99.391271 220 38668ft 443kts
03-Nov-20 12:59 52.659057 -99.502904 220 38667ft 443kts
03-Nov-20 13:00 52.555995 -99.613770 220 38663ft 443kts
03-Nov-20 13:01 52.452697 -99.724273 219 38662ft 443kts
03-Nov-20 13:02 52.348808 -99.834775 219 38664ft 444kts
03-Nov-20 13:03 52.245132 -99.944415 219 38661ft 444kts
03-Nov-20 13:04 52.141464 -100.053425 218 38662ft 444kts
03-Nov-20 13:05 52.037294 -100.162358 218 38660ft 444kts
03-Nov-20 13:06 51.933260 -100.270537 218 38657ft 445kts
03-Nov-20 13:07 51.828912 -100.378425 218 38655ft 445kts
03-Nov-20 13:08 51.724605 -100.485691 218 38653ft 445kts
03-Nov-20 13:09 51.619596 -100.593073 217 38652ft 446kts
03-Nov-20 13:10 51.514644 -100.699798 217 38649ft 447kts
03-Nov-20 13:11 51.409587 -100.806045 217 38650ft 447kts
03-Nov-20 13:12 51.304108 -100.912130 217 38651ft 447kts
03-Nov-20 13:13 51.198634 -101.017620 216 38656ft 448kts
03-Nov-20 13:14 51.092532 -101.123170 216 38662ft 448kts
03-Nov-20 13:15 50.986542 -101.228030 216 38666ft 449kts
03-Nov-20 13:16 50.880259 -101.332605 216 38670ft 450kts
03-Nov-20 13:17 50.773628 -101.436954 215 38673ft 451kts
03-Nov-20 13:18 50.666480 -101.541229 215 38676ft 452kts
03-Nov-20 13:19 50.558883 -101.645376 215 38674ft 454kts
03-Nov-20 13:20 50.451222 -101.749043 214 38677ft 455kts
03-Nov-20 13:21 50.343004 -101.852659 214 38682ft 456kts
03-Nov-20 13:22 49.601489 -102.548042 213 38730ft 459kts
03-Nov-20 13:23 48.999884 -103.094114 213 38767ft 459kts
03-Nov-20 13:24 48.889358 -103.192721 212 38779ft 460kts
03-Nov-20 13:25 48.778739 -103.290936 212 38782ft 460kts
03-Nov-20 13:26 48.668140 -103.388634 212 38795ft 460kts
03-Nov-20 13:27 48.557666 -103.485734 212 38810ft 460kts
03-Nov-20 13:28 48.446904 -103.583033 212 38817ft 460kts
03-Nov-20 13:29 48.336115 -103.679123 212 38828ft 460kts
03-Nov-20 13:31 48.226019 -103.777888 216 38830ft 459kts
03-Nov-20 13:32 48.121627 -103.888327 217 38830ft 458kts
03-Nov-20 13:33 48.017145 -103.997549 216 38832ft 458kts
03-Nov-20 13:34 47.912647 -104.107002 217 38836ft 458kts
03-Nov-20 13:35 47.808424 -104.215984 219 38838ft 458kts
03-Nov-20 13:36 47.714037 -104.341725 211 38845ft 457kts
03-Nov-20 13:37 47.601962 -104.432295 213 38847ft 459kts
03-Nov-20 13:49 37.947319 -113.493647 200 39245ft 473kts
03-Nov-20 13:49 37.840107 -113.523515 192 39244ft 477kts
03-Nov-20 13:51 37.688877 -113.565062 193 39236ft 476kts
03-Nov-20 13:51 37.579488 -113.586255 192 39221ft 477kts
03-Nov-20 13:53 37.427391 -113.621752 193 39176ft 475kts
03-Nov-20 13:53 37.319514 -113.647585 194 39153ft 474kts
03-Nov-20 13:55 37.168253 -113.683516 194 39133ft 473kts
03-Nov-20 13:55 37.060485 -113.709362 197 39131ft 471kts
03-Nov-20 13:56 36.938333 -113.764711 205 39133ft 465kts
03-Nov-20 13:57 36.817655 -113.823675 205 39136ft 465kts
03-Nov-20 13:58 36.697413 -113.881561 205 39140ft 463kts
03-Nov-20 13:59 36.579113 -113.943866 209 39134ft 461kts
03-Nov-20 14:00 36.461777 -114.009010 208 39123ft 460kts
03-Nov-20 14:01 36.349200 -114.083115 217 39121ft 456kts
03-Nov-20 14:02 36.241914 -114.166588 216 39118ft 455kts
03-Nov-20 14:03 36.134097 -114.248668 216 39101ft 455kts
03-Nov-20 14:04 36.038496 -114.348078 231 39098ft 447kts
03-Nov-20 14:05 35.956663 -114.463268 231 39094ft 445kts
03-Nov-20 14:06 35.874435 -114.576964 232 38228ft 443kts
03-Nov-20 14:07 35.793022 -114.690978 230 38084ft 445kts
03-Nov-20 14:08 35.709560 -114.804088 231 38079ft 446kts
03-Nov-20 14:09 35.626817 -114.917601 231 38084ft 446kts
03-Nov-20 14:10 35.543774 -115.031151 231 38081ft 447kts
03-Nov-20 14:11 35.459301 -115.143865 229 38076ft 449kts
03-Nov-20 14:12 35.373602 -115.254997 230 38073ft 449kts
03-Nov-20 14:13 35.288171 -115.366711 230 38074ft 449kts
03-Nov-20 14:14 35.201961 -115.478183 229 38081ft 449kts
03-Nov-20 14:15 35.184996 -115.500068 229 38082ft 449kts
03-Nov-20 14:16 35.099226 -115.610436 229 38094ft 448kts
03-Nov-20 14:17 35.017681 -115.714378 229 38099ft 447kts
03-Nov-20 14:18 34.934519 -115.820974 229 38105ft 424kts
03-Nov-20 14:19 34.853438 -115.923778 229 37514ft 416kts
03-Nov-20 14:20 34.774443 -116.024880 233 36017ft 403kts
03-Nov-20 14:21 34.697658 -116.122460 229 34535ft 394kts
03-Nov-20 14:22 34.623137 -116.216329 230 32952ft 379kts
03-Nov-20 14:23 34.550633 -116.308422 230 31314ft 373kts
03-Nov-20 14:24 34.479456 -116.398187 229 29478ft 365kts
03-Nov-20 14:25 34.412738 -116.488650 241 27705ft 352kts
03-Nov-20 14:26 34.369036 -116.593220 246 25903ft 344kts
03-Nov-20 14:27 34.326959 -116.695609 246 24291ft 334kts
03-Nov-20 14:28 34.287876 -116.793381 246 23007ft 318kts
03-Nov-20 14:29 34.249287 -116.888782 245 21422ft 312kts
03-Nov-20 14:30 34.211578 -116.982511 248 19865ft 307kts
03-Nov-20 14:31 34.184943 -117.079912 252 18310ft 303kts
03-Nov-20 14:32 34.158843 -117.176239 252 16763ft 301kts
03-Nov-20 14:33 34.132553 -117.271734 251 15378ft 295kts
03-Nov-20 14:34 34.118011 -117.368265 249 14144ft 294kts
03-Nov-20 14:35 34.082167 -117.457026 253 12916ft 294kts
03-Nov-20 14:36 34.056454 -117.547841 245 11757ft 290kts
03-Nov-20 14:37 34.023684 -117.636173 246 10598ft 289kts
03-Nov-20 14:38 34.000890 -117.728736 263 9408ft 294kts
03-Nov-20 14:39 33.993390 -117.823639 257 8219ft 287kts
03-Nov-20 14:40 33.984641 -117.915451 264 7408ft 265kts
03-Nov-20 14:41 33.976913 -118.002396 262 6064ft 252kts
03-Nov-20 14:42 33.973748 -118.085071 258 4785ft 246kts
03-Nov-20 14:43 33.961735 -118.164892 257 3544ft 239kts
03-Nov-20 14:44 33.952421 -118.236172 262 2415ft 183kts
03-Nov-20 14:45 33.946624 -118.292447 262 1623ft 162kts
03-Nov-20 14:46 33.941256 -118.344643 262 761ft 155kts
03-Nov-20 14:47 33.936164 -118.394628 262 140ft 131kts
03-Nov-20 14:48 33.934763 -118.410594 298 139ft 0kts
03-Nov-20 14:49 33.934851 -118.410794 297 139ft 0kts
03-Nov-20 14:50 33.935849 -118.412471 343 139ft 9kts
03-Nov-20 14:51 33.937072 -118.412745 351 139ft 9kts

Navigation Log

Ident Type
Flight plan parsing failed, navigation log unavailable